Time;durP1;ratioP1;P1;durP2;ratioP2;P2;SDS_P1;SDS_P2;PMS_P1;PMS_P2;Temp;Humidity;BMP_temperature;BMP_pressure;BME280_temperature;BME280_humidity;BME280_pressure;Samples;Min_cycle;Max_cycle;Signal;HPM_P1;HPM_P2
2022/11/12 00:00:01;;;;;;;7.90;5.55;;;9.30;99.90;;;;;;5016212;28;20022;-89
2022/11/12 00:02:27;;;;;;;10.13;5.20;;;9.30;99.90;;;;;;5013967;28;20090;-86
2022/11/12 00:04:52;;;;;;;9.10;5.35;;;9.20;99.90;;;;;;5013576;28;20029;-88
2022/11/12 00:07:18;;;;;;;10.00;6.22;;;9.10;99.90;;;;;;5012703;28;20030;-87
2022/11/12 00:09:44;;;;;;;8.48;7.40;;;9.00;99.90;;;;;;5027429;28;20029;-86
2022/11/12 00:12:10;;;;;;;6.72;5.38;;;8.90;99.90;;;;;;5034654;28;20006;-88
2022/11/12 00:14:36;;;;;;;8.70;6.15;;;8.90;99.90;;;;;;5013186;28;20037;-88
2022/11/12 00:17:01;;;;;;;10.57;6.15;;;8.80;99.90;;;;;;5013172;28;20032;-87
2022/11/12 00:19:27;;;;;;;7.70;5.47;;;8.80;99.90;;;;;;5016019;28;20033;-88
2022/11/12 00:21:53;;;;;;;7.07;5.10;;;8.80;99.90;;;;;;4999399;28;20042;-85
2022/11/12 00:24:19;;;;;;;9.35;5.70;;;8.80;99.90;;;;;;5026301;28;20052;-85
2022/11/12 00:26:45;;;;;;;7.32;5.03;;;8.80;99.90;;;;;;5031527;28;20014;-85
2022/11/12 00:29:10;;;;;;;8.60;4.70;;;8.70;99.90;;;;;;5011385;28;20030;-87
2022/11/12 00:31:37;;;;;;;10.45;6.13;;;8.60;99.90;;;;;;5003487;28;20097;-89
2022/11/12 00:34:03;;;;;;;7.63;4.88;;;8.60;99.90;;;;;;5017965;28;20041;-84
2022/11/12 00:36:29;;;;;;;7.32;5.55;;;8.60;99.90;;;;;;5021683;28;20116;-87
2022/11/12 00:38:55;;;;;;;10.15;6.03;;;8.60;99.90;;;;;;5003291;28;20038;-87
2022/11/12 00:41:21;;;;;;;6.90;5.53;;;8.60;99.90;;;;;;4990530;28;20113;-87
2022/11/12 00:43:47;;;;;;;7.70;5.45;;;8.60;99.90;;;;;;5007155;28;20053;-90
2022/11/12 00:46:12;;;;;;;10.27;6.75;;;8.60;99.90;;;;;;5013479;28;20080;-88
2022/11/12 00:48:38;;;;;;;9.15;6.20;;;8.60;99.90;;;;;;5016120;28;20410;-87
2022/11/12 00:51:05;;;;;;;9.50;5.50;;;8.60;99.90;;;;;;4996819;28;20463;-88
2022/11/12 00:53:31;;;;;;;8.85;6.40;;;8.70;99.90;;;;;;5017890;28;20022;-87
2022/11/12 00:56:02;;;;;;;9.27;6.38;;;8.60;99.90;;;;;;5032412;28;20037;-86
2022/11/12 00:58:33;;;;;;;13.55;7.93;;;8.70;99.90;;;;;;5023221;28;20034;-85
2022/11/12 01:01:12;;;;;;;10.80;6.82;;;8.60;99.90;;;;;;5018644;28;20091;-86
2022/11/12 01:03:39;;;;;;;11.57;7.35;;;8.60;99.90;;;;;;5015047;28;20053;-86
2022/11/12 01:06:10;;;;;;;10.43;7.13;;;8.70;99.90;;;;;;5016944;28;20392;-88
2022/11/12 01:08:47;;;;;;;8.68;6.53;;;8.60;99.90;;;;;;5017287;28;20026;-90
2022/11/12 01:14:09;;;;;;;11.85;7.38;;;8.60;99.90;;;;;;5007312;28;20438;-89
2022/11/12 01:16:38;;;;;;;11.55;6.78;;;8.60;99.90;;;;;;5017005;28;20036;-88
2022/11/12 01:19:07;;;;;;;11.15;6.55;;;8.60;99.90;;;;;;5014852;28;20121;-88
2022/11/12 01:21:38;;;;;;;9.43;6.40;;;8.60;99.90;;;;;;5018374;28;20073;-88
2022/11/12 01:24:04;;;;;;;10.13;6.80;;;8.50;99.90;;;;;;4998431;28;20038;-89
2022/11/12 01:26:30;;;;;;;9.40;6.75;;;8.60;99.90;;;;;;5007187;28;20141;-89
2022/11/12 01:28:56;;;;;;;12.38;7.63;;;8.60;99.90;;;;;;5012748;28;20046;-90
2022/11/12 01:31:25;;;;;;;10.18;6.80;;;8.60;99.90;;;;;;5015041;28;20026;-90
2022/11/12 01:33:57;;;;;;;9.77;6.85;;;8.60;99.90;;;;;;4999229;28;20030;-88
2022/11/12 01:36:24;;;;;;;9.95;7.40;;;8.70;99.90;;;;;;5014844;28;20411;-89
2022/11/12 01:38:51;;;;;;;10.80;7.75;;;8.70;99.90;;;;;;5018104;28;20084;-87
2022/11/12 01:41:21;;;;;;;10.20;6.75;;;8.70;99.90;;;;;;5023586;28;20022;-87
2022/11/12 01:44:05;;;;;;;9.88;6.78;;;8.70;99.90;;;;;;5018062;28;20037;-89
2022/11/12 01:46:31;;;;;;;9.45;6.65;;;8.70;99.90;;;;;;5009782;28;20042;-87
2022/11/12 01:49:01;;;;;;;12.13;7.25;;;8.70;99.90;;;;;;5015823;28;20045;-88
2022/11/12 01:51:32;;;;;;;13.82;7.88;;;8.70;99.90;;;;;;5016403;28;20041;-88
2022/11/12 01:54:02;;;;;;;10.13;7.70;;;8.70;99.90;;;;;;5016811;28;20029;-89
2022/11/12 01:56:30;;;;;;;10.85;7.45;;;8.70;99.90;;;;;;5015004;28;20060;-89
2022/11/12 01:59:07;;;;;;;15.18;9.55;;;8.70;99.90;;;;;;5031582;28;20022;-89
2022/11/12 02:01:35;;;;;;;10.50;7.67;;;8.70;99.90;;;;;;5033992;28;20074;-89
2022/11/12 02:04:01;;;;;;;9.48;8.43;;;8.80;99.90;;;;;;5033626;28;20286;-89
2022/11/12 02:06:27;;;;;;;14.05;7.25;;;8.70;99.90;;;;;;5032003;28;20026;-89
2022/11/12 02:08:53;;;;;;;13.80;8.35;;;8.80;99.90;;;;;;5016139;28;20502;-88
2022/11/12 02:11:20;;;;;;;13.38;8.98;;;8.70;99.90;;;;;;5018518;28;20022;-87
2022/11/12 02:14:02;;;;;;;13.73;9.25;;;8.70;99.90;;;;;;5017101;28;20113;-88
2022/11/12 02:16:40;;;;;;;14.32;9.52;;;8.70;99.90;;;;;;5027593;28;20494;-88
2022/11/12 02:19:12;;;;;;;14.82;9.55;;;8.80;99.90;;;;;;5025532;28;20521;-89
2022/11/12 02:21:38;;;;;;;12.82;8.90;;;8.70;99.90;;;;;;5016471;28;20041;-88
2022/11/12 02:24:25;;;;;;;12.65;9.40;;;8.70;99.90;;;;;;5016228;28;20638;-88
2022/11/12 02:26:54;;;;;;;12.18;7.63;;;8.80;99.90;;;;;;5016355;28;20097;-88
2022/11/12 02:29:20;;;;;;;14.15;9.32;;;8.70;99.90;;;;;;5016100;28;20050;-87
2022/11/12 02:31:46;;;;;;;10.50;8.68;;;8.70;99.90;;;;;;5018256;28;20082;-88
2022/11/12 02:34:12;;;;;;;12.63;9.73;;;8.80;99.90;;;;;;5021956;28;20090;-87
2022/11/12 02:36:38;;;;;;;11.45;9.25;;;8.80;99.90;;;;;;5026051;28;20032;-90
2022/11/12 02:39:04;;;;;;;13.80;9.25;;;8.80;99.90;;;;;;5026487;28;20029;-91
2022/11/12 02:41:30;;;;;;;16.83;8.70;;;8.80;99.90;;;;;;5024813;28;20061;-87
2022/11/12 02:43:56;;;;;;;11.70;7.32;;;8.80;99.90;;;;;;5018106;28;20053;-85
2022/11/12 02:46:22;;;;;;;13.43;8.80;;;8.90;99.90;;;;;;5021610;28;20021;-85
2022/11/12 02:48:48;;;;;;;10.93;8.23;;;8.80;99.90;;;;;;5001196;28;20466;-88
2022/11/12 02:51:14;;;;;;;9.00;6.20;;;8.80;99.90;;;;;;5020166;28;20074;-88
2022/11/12 02:53:40;;;;;;;9.45;7.43;;;8.80;99.90;;;;;;5018717;28;20026;-86
2022/11/12 02:56:06;;;;;;;10.98;7.47;;;8.80;99.90;;;;;;5019517;28;20026;-86
2022/11/12 02:58:32;;;;;;;11.88;7.78;;;8.90;99.90;;;;;;5005268;28;20041;-86
2022/11/12 03:00:58;;;;;;;13.40;7.85;;;8.90;99.90;;;;;;5017355;28;20424;-88
2022/11/12 03:03:24;;;;;;;8.35;7.10;;;8.90;99.90;;;;;;4996419;28;20032;-88
2022/11/12 03:05:58;;;;;;;7.70;6.50;;;9.00;99.90;;;;;;5014129;28;20471;-87
2022/11/12 03:08:25;;;;;;;7.95;5.85;;;9.00;99.90;;;;;;4995597;28;20029;-87
2022/11/12 03:10:51;;;;;;;11.93;8.00;;;9.00;99.90;;;;;;5015746;28;20487;-86
2022/11/12 03:13:17;;;;;;;9.98;6.72;;;9.10;99.90;;;;;;5019128;28;20479;-87
2022/11/12 03:15:43;;;;;;;12.93;7.57;;;9.10;99.90;;;;;;5028089;28;20048;-87
2022/11/12 03:18:09;;;;;;;8.98;6.93;;;9.10;99.90;;;;;;5035535;28;20101;-86
2022/11/12 03:20:35;;;;;;;9.13;7.28;;;9.10;99.90;;;;;;5016774;28;20030;-87
2022/11/12 03:23:03;;;;;;;10.90;6.97;;;9.20;99.90;;;;;;5015689;28;20053;-86
2022/11/12 03:25:30;;;;;;;12.25;7.38;;;9.20;99.90;;;;;;5018202;28;20072;-88
2022/11/12 03:28:07;;;;;;;13.63;7.38;;;9.20;99.90;;;;;;5011898;28;20026;-89
2022/11/12 03:30:36;;;;;;;9.70;7.13;;;9.30;99.90;;;;;;4994560;28;20026;-86
2022/11/12 03:33:02;;;;;;;11.23;6.65;;;9.30;99.90;;;;;;5012685;28;20458;-86
2022/11/12 03:35:29;;;;;;;9.70;6.05;;;9.30;99.90;;;;;;4996454;28;20029;-88
2022/11/12 03:37:54;;;;;;;7.43;5.03;;;9.30;99.90;;;;;;5013485;28;20092;-89
2022/11/12 03:40:20;;;;;;;7.70;6.05;;;9.30;99.90;;;;;;5013846;28;20030;-88
2022/11/12 03:42:48;;;;;;;7.75;5.88;;;9.20;99.90;;;;;;5015265;28;20097;-88
2022/11/12 03:45:15;;;;;;;7.95;5.68;;;9.30;99.90;;;;;;4998297;28;20022;-87
2022/11/12 03:47:42;;;;;;;10.30;6.00;;;9.30;99.90;;;;;;5031881;28;20056;-88
2022/11/12 03:50:09;;;;;;;10.55;6.45;;;9.30;99.90;;;;;;4996406;28;20077;-88
2022/11/12 03:52:35;;;;;;;9.15;5.68;;;9.40;99.90;;;;;;5013673;28;20026;-87
2022/11/12 03:55:01;;;;;;;7.10;5.47;;;9.40;99.90;;;;;;5013417;28;20063;-87
2022/11/12 03:57:27;;;;;;;8.02;5.72;;;9.40;99.90;;;;;;5013478;28;20025;-88
2022/11/12 03:59:53;;;;;;;8.05;3.97;;;9.40;99.90;;;;;;5012749;28;20025;-87
2022/11/12 04:02:18;;;;;;;7.78;5.82;;;9.40;99.90;;;;;;5012949;28;20483;-87
2022/11/12 04:10:13;;;;;;;6.57;4.63;;;9.50;99.90;;;;;;5019995;28;20032;-89
2022/11/12 04:15:23;;;;;;;6.65;4.47;;;9.50;99.90;;;;;;5013975;28;20505;-89
2022/11/12 04:23:17;;;;;;;9.35;6.22;;;9.60;99.90;;;;;;5011110;28;20053;-91
2022/11/12 04:28:34;;;;;;;7.10;6.18;;;9.60;99.90;;;;;;5024066;28;20057;-91
2022/11/12 04:31:00;;;;;;;7.95;5.07;;;9.60;99.90;;;;;;5015515;28;20122;-91
2022/11/12 04:33:26;;;;;;;6.45;5.10;;;9.50;99.90;;;;;;5038260;28;20358;-86
2022/11/12 04:35:52;;;;;;;8.48;5.13;;;9.50;99.90;;;;;;5004180;28;20027;-91
2022/11/12 04:38:20;;;;;;;5.20;4.55;;;9.60;99.90;;;;;;5017910;28;20053;-90
2022/11/12 04:46:19;;;;;;;6.93;5.07;;;9.70;99.90;;;;;;5028257;28;20009;-92
2022/11/12 04:48:44;;;;;;;6.88;4.75;;;9.80;99.90;;;;;;5020803;28;20022;-89
2022/11/12 04:53:55;;;;;;;5.75;4.97;;;9.80;99.90;;;;;;5023369;28;20390;-90
2022/11/12 04:56:21;;;;;;;7.88;4.65;;;9.80;99.90;;;;;;5019683;28;20021;-89
2022/11/12 04:58:47;;;;;;;5.00;3.42;;;9.80;99.90;;;;;;5017708;28;20032;-88
2022/11/12 05:01:13;;;;;;;7.15;4.80;;;9.90;99.90;;;;;;5000188;28;20022;-91
2022/11/12 05:03:39;;;;;;;6.22;5.20;;;9.80;99.90;;;;;;5008725;28;20025;-90
2022/11/12 05:06:50;;;;;;;6.30;4.13;;;9.90;99.90;;;;;;5036017;28;20014;-85
2022/11/12 05:08:51;;;;;;;6.20;4.63;;;9.90;99.90;;;;;;5040315;28;20041;-86
2022/11/12 05:11:17;;;;;;;5.70;4.93;;;9.90;99.90;;;;;;5038711;28;20017;-89
2022/11/12 05:13:45;;;;;;;5.55;4.15;;;9.90;99.90;;;;;;5034502;28;20040;-90
2022/11/12 05:16:12;;;;;;;6.97;4.32;;;9.90;99.90;;;;;;5026928;28;20021;-90
2022/11/12 05:18:56;;;;;;;8.27;6.32;;;9.90;99.90;;;;;;5008832;28;20036;-93
2022/11/12 05:24:06;;;;;;;8.45;5.90;;;10.00;99.90;;;;;;5017250;28;20064;-89
2022/11/12 05:26:32;;;;;;;6.70;4.70;;;9.90;99.90;;;;;;5017258;28;20018;-88
2022/11/12 05:28:58;;;;;;;6.47;5.18;;;9.90;99.90;;;;;;5017732;28;20407;-90
2022/11/12 05:31:24;;;;;;;5.32;4.40;;;9.90;99.90;;;;;;5026030;28;20033;-90
2022/11/12 05:33:50;;;;;;;6.45;4.45;;;10.00;99.90;;;;;;5020487;28;20049;-91
2022/11/12 05:36:16;;;;;;;5.55;4.78;;;10.00;99.90;;;;;;5031486;28;20057;-88
2022/11/12 05:38:41;;;;;;;5.63;3.85;;;10.10;99.90;;;;;;5021191;28;20034;-91
2022/11/12 05:41:07;;;;;;;5.68;4.25;;;10.10;99.90;;;;;;5021185;28;20022;-89
2022/11/12 05:43:35;;;;;;;6.75;3.80;;;10.10;99.90;;;;;;5021864;28;20495;-91
2022/11/12 05:46:04;;;;;;;7.35;3.65;;;10.20;99.90;;;;;;5007325;28;20018;-92
2022/11/12 05:48:30;;;;;;;5.35;4.22;;;10.20;99.90;;;;;;5020652;28;20132;-90
2022/11/12 05:50:56;;;;;;;4.38;3.35;;;10.10;99.90;;;;;;5018891;28;20053;-90
2022/11/12 05:53:23;;;;;;;5.00;3.55;;;10.20;99.90;;;;;;5020659;28;20029;-90
2022/11/12 05:55:49;;;;;;;4.70;4.20;;;10.10;99.90;;;;;;5013033;28;20118;-89
2022/11/12 05:58:15;;;;;;;6.05;3.72;;;10.20;99.90;;;;;;5001605;28;20066;-90
2022/11/12 06:00:41;;;;;;;5.88;3.47;;;10.20;99.90;;;;;;4998643;28;20113;-91
2022/11/12 06:03:07;;;;;;;4.30;3.33;;;10.20;99.90;;;;;;4999970;28;20045;-90
2022/11/12 06:05:34;;;;;;;5.47;3.60;;;10.20;99.90;;;;;;5022294;28;20514;-91
2022/11/12 06:08:02;;;;;;;5.38;3.75;;;10.30;99.90;;;;;;5011638;28;20279;-92
2022/11/12 06:10:29;;;;;;;4.10;3.70;;;10.30;99.90;;;;;;5014851;28;20021;-92
2022/11/12 06:12:55;;;;;;;3.90;2.78;;;10.30;99.90;;;;;;5018909;28;20022;-91
2022/11/12 06:15:20;;;;;;;4.32;2.88;;;10.30;99.90;;;;;;4990067;28;20030;-92
2022/11/12 06:17:46;;;;;;;6.57;3.65;;;10.40;99.90;;;;;;5016229;28;20032;-94
2022/11/12 06:20:13;;;;;;;5.50;3.92;;;10.40;99.90;;;;;;5004395;28;20083;-91
2022/11/12 06:22:39;;;;;;;3.75;2.70;;;10.40;99.90;;;;;;5014457;28;20133;-91
2022/11/12 06:25:05;;;;;;;4.70;3.55;;;10.40;99.90;;;;;;5012628;28;20021;-86
2022/11/12 06:27:31;;;;;;;2.85;2.28;;;10.40;99.90;;;;;;5017071;28;20031;-89
2022/11/12 06:29:58;;;;;;;3.85;2.10;;;10.40;99.90;;;;;;5018642;28;20088;-89
2022/11/12 06:32:24;;;;;;;4.05;2.53;;;10.40;99.90;;;;;;5035561;28;20014;-92
2022/11/12 06:34:52;;;;;;;7.38;2.97;;;10.40;99.90;;;;;;5016381;28;20041;-92
2022/11/12 06:37:20;;;;;;;3.72;2.17;;;10.50;99.90;;;;;;4981142;28;20057;-92
2022/11/12 06:39:47;;;;;;;3.83;1.73;;;10.50;99.90;;;;;;5021128;28;20026;-92
2022/11/12 06:42:13;;;;;;;2.70;2.00;;;10.50;99.90;;;;;;5018618;28;20026;-92
2022/11/12 06:44:40;;;;;;;2.83;2.40;;;10.60;99.90;;;;;;5005048;28;20479;-88
2022/11/12 06:47:06;;;;;;;3.47;2.08;;;10.60;99.90;;;;;;5010499;28;20029;-91
2022/11/12 06:49:32;;;;;;;3.38;2.15;;;10.60;99.90;;;;;;5009072;28;20122;-91
2022/11/12 06:51:59;;;;;;;3.13;2.47;;;10.60;99.90;;;;;;5022751;28;20046;-94
2022/11/12 06:54:25;;;;;;;9.40;4.45;;;10.60;99.90;;;;;;5025843;28;20072;-91
2022/11/12 06:56:51;;;;;;;7.43;2.50;;;10.60;99.90;;;;;;5026572;28;20026;-93
2022/11/12 06:59:19;;;;;;;3.38;2.40;;;10.60;99.90;;;;;;5026409;28;20179;-92
2022/11/12 07:01:46;;;;;;;7.38;2.35;;;10.50;99.90;;;;;;5003229;28;20038;-90
2022/11/12 07:04:12;;;;;;;6.72;2.40;;;10.60;99.90;;;;;;5020231;28;20030;-91
2022/11/12 07:06:38;;;;;;;4.68;2.60;;;10.60;99.90;;;;;;5004702;28;20149;-91
2022/11/12 07:09:10;;;;;;;8.23;4.18;;;10.60;99.90;;;;;;5019109;28;20077;-93
2022/11/12 07:11:48;;;;;;;3.72;2.13;;;10.70;99.90;;;;;;4988720;28;20033;-93
2022/11/12 07:14:14;;;;;;;6.03;2.35;;;10.80;99.90;;;;;;5004550;28;20517;-90
2022/11/12 07:16:40;;;;;;;4.93;1.75;;;10.90;99.90;;;;;;5021906;28;20029;-93
2022/11/12 07:19:06;;;;;;;4.57;3.13;;;10.90;99.90;;;;;;5034338;28;20460;-92
2022/11/12 07:21:32;;;;;;;6.03;2.15;;;10.90;99.90;;;;;;5008891;28;20034;-90
2022/11/12 07:23:58;;;;;;;4.60;2.88;;;10.90;99.90;;;;;;5037400;28;20022;-91
2022/11/12 07:26:26;;;;;;;5.05;2.67;;;11.00;99.90;;;;;;5033389;28;20022;-90
2022/11/12 07:28:57;;;;;;;3.22;2.35;;;11.00;99.90;;;;;;5035115;28;20020;-92
2022/11/12 07:31:24;;;;;;;5.68;2.30;;;11.00;99.90;;;;;;4997012;28;20026;-90
2022/11/12 07:33:50;;;;;;;6.15;2.80;;;11.00;99.90;;;;;;5014963;28;20034;-92
2022/11/12 07:36:19;;;;;;;4.07;2.75;;;11.10;99.90;;;;;;5029756;28;20515;-92
2022/11/12 07:38:49;;;;;;;5.75;2.97;;;11.20;99.90;;;;;;5022462;28;20044;-90
2022/11/12 07:41:23;;;;;;;5.85;3.13;;;11.30;99.90;;;;;;5028554;28;20085;-94
2022/11/12 07:43:52;;;;;;;4.32;2.40;;;11.40;99.90;;;;;;5032985;28;20030;-92
2022/11/12 07:46:24;;;;;;;2.85;2.20;;;11.50;99.90;;;;;;5014433;28;20124;-92
2022/11/12 07:48:51;;;;;;;4.72;1.92;;;11.40;99.90;;;;;;4999466;28;20391;-90
2022/11/12 07:51:21;;;;;;;5.32;2.30;;;11.30;99.90;;;;;;5012417;28;20116;-90
2022/11/12 07:53:52;;;;;;;3.30;1.65;;;11.30;99.90;;;;;;5019871;28;20392;-91
2022/11/12 07:56:25;;;;;;;2.47;2.00;;;11.30;99.90;;;;;;5015931;28;20026;-91
2022/11/12 07:58:55;;;;;;;3.38;1.85;;;11.30;99.90;;;;;;5014810;28;20044;-90
2022/11/12 08:01:33;;;;;;;3.42;1.98;;;11.30;99.90;;;;;;5008753;28;20026;-89
2022/11/12 08:04:00;;;;;;;2.33;1.63;;;11.30;99.90;;;;;;5001094;28;20037;-88
2022/11/12 08:06:30;;;;;;;4.10;2.13;;;11.30;99.90;;;;;;5009301;28;20030;-91
2022/11/12 08:09:05;;;;;;;3.90;1.90;;;11.40;99.90;;;;;;4998438;28;20026;-92
2022/11/12 08:11:33;;;;;;;2.95;1.65;;;11.40;99.90;;;;;;5015392;28;20501;-89
2022/11/12 08:14:05;;;;;;;5.55;2.63;;;11.40;99.90;;;;;;5002796;28;20026;-89
2022/11/12 08:16:33;;;;;;;3.83;1.48;;;11.40;99.90;;;;;;5011118;28;20126;-90
2022/11/12 08:19:06;;;;;;;3.30;1.52;;;11.40;99.90;;;;;;5025145;28;20487;-89
2022/11/12 08:21:34;;;;;;;2.67;1.73;;;11.40;99.90;;;;;;4993745;28;20036;-89
2022/11/12 08:23:59;;;;;;;1.35;1.05;;;11.40;99.90;;;;;;5021129;28;20110;-87
2022/11/12 08:26:25;;;;;;;1.55;1.30;;;11.50;99.90;;;;;;5027338;28;20030;-89
2022/11/12 08:28:51;;;;;;;3.00;1.55;;;11.50;99.90;;;;;;5037260;28;20048;-91
2022/11/12 08:31:23;;;;;;;3.20;1.65;;;11.50;99.90;;;;;;5019836;28;20017;-90
2022/11/12 08:33:50;;;;;;;4.85;1.90;;;11.60;99.90;;;;;;5030688;28;20034;-90
2022/11/12 08:36:17;;;;;;;2.75;1.55;;;11.60;99.90;;;;;;5010530;28;20022;-88
2022/11/12 08:38:44;;;;;;;6.55;1.60;;;11.70;99.90;;;;;;5026775;28;20076;-90
2022/11/12 08:41:12;;;;;;;4.00;1.30;;;11.80;99.90;;;;;;5020409;28;20144;-86
2022/11/12 08:43:39;;;;;;;2.72;1.00;;;11.80;99.90;;;;;;5023580;28;20565;-86
2022/11/12 08:46:05;;;;;;;;;;;11.70;99.90;;;;;;5026566;28;20022;-87
2022/11/12 08:48:33;;;;;;;6.65;1.80;;;11.60;99.90;;;;;;5021409;28;19964;-88
2022/11/12 08:51:03;;;;;;;3.78;1.60;;;11.60;99.90;;;;;;5020772;28;20026;-89
2022/11/12 08:53:29;;;;;;;3.97;1.85;;;11.70;99.90;;;;;;5013438;28;20024;-87
2022/11/12 08:55:56;;;;;;;4.60;2.10;;;11.70;99.90;;;;;;5018740;28;20048;-85
2022/11/12 08:58:23;;;;;;;4.38;1.30;;;11.80;99.90;;;;;;5019495;28;20038;-86
2022/11/12 09:00:54;;;;;;;4.88;2.50;;;11.90;99.90;;;;;;5018781;28;20014;-89
2022/11/12 09:03:25;;;;;;;4.03;1.20;;;11.80;99.90;;;;;;5021061;28;20117;-88
2022/11/12 09:05:52;;;;;;;2.10;1.27;;;11.80;99.90;;;;;;5013534;28;20026;-88
2022/11/12 09:08:21;;;;;;;1.23;0.88;;;11.80;99.90;;;;;;5024275;28;20053;-89
2022/11/12 09:10:48;;;;;;;6.57;1.83;;;11.90;99.90;;;;;;5035842;28;20026;-91
2022/11/12 09:13:17;;;;;;;4.10;1.45;;;12.00;99.90;;;;;;5029434;28;20037;-94
2022/11/12 09:15:46;;;;;;;2.53;1.48;;;12.00;99.90;;;;;;4997288;28;20533;-94
2022/11/12 09:18:17;;;;;;;15.05;2.08;;;12.00;99.90;;;;;;5012940;28;20029;-92
2022/11/12 09:20:43;;;;;;;4.97;1.70;;;11.90;99.90;;;;;;5024373;28;20022;-93
2022/11/12 09:23:12;;;;;;;2.45;1.40;;;11.80;99.90;;;;;;5007024;28;20050;-87
2022/11/12 09:25:39;;;;;;;3.88;1.27;;;11.80;99.90;;;;;;5015323;28;20022;-87
2022/11/12 09:28:15;;;;;;;3.40;1.55;;;11.80;99.90;;;;;;5016398;28;20080;-88
2022/11/12 09:30:46;;;;;;;4.60;1.43;;;11.80;99.90;;;;;;5007461;28;20049;-89
2022/11/12 09:33:23;;;;;;;5.32;1.40;;;11.70;99.90;;;;;;5023167;28;20021;-85
2022/11/12 09:35:49;;;;;;;2.22;1.55;;;11.60;99.90;;;;;;5004685;28;20554;-86
2022/11/12 09:38:16;;;;;;;4.72;2.92;;;11.60;99.90;;;;;;5001300;28;20065;-86
2022/11/12 09:41:06;;;;;;;2.45;2.05;;;11.60;99.90;;;;;;4997633;28;20037;-84
2022/11/12 09:44:01;;;;;;;4.43;1.67;;;11.60;99.90;;;;;;5010666;28;20026;-84
2022/11/12 09:46:44;;;;;;;7.93;1.63;;;11.70;99.90;;;;;;4968999;28;20034;-83
2022/11/12 09:49:22;;;;;;;4.43;1.45;;;11.70;99.90;;;;;;4996519;28;20407;-83
2022/11/12 09:51:50;;;;;;;4.95;1.75;;;11.70;99.90;;;;;;5004163;28;20025;-83
2022/11/12 09:54:19;;;;;;;;;;;11.60;99.90;;;;;;5011748;28;20045;-84
2022/11/12 09:56:48;;;;;;;3.63;1.40;;;11.60;99.90;;;;;;4987513;28;19917;-84
2022/11/12 09:59:15;;;;;;;2.92;1.55;;;11.70;99.90;;;;;;5009853;28;20129;-83
2022/11/12 10:01:46;;;;;;;1.95;1.10;;;11.70;99.90;;;;;;5011719;28;20030;-82
2022/11/12 10:04:34;;;;;;;6.10;2.40;;;11.70;99.90;;;;;;5015820;28;20061;-83
2022/11/12 10:07:07;;;;;;;2.88;2.00;;;11.80;99.90;;;;;;4999591;28;20030;-86
2022/11/12 10:09:51;;;;;;;3.75;1.85;;;11.90;99.90;;;;;;4993676;28;20094;-85
2022/11/12 10:12:43;;;;;;;2.15;0.93;;;12.00;99.90;;;;;;5018120;28;20040;-86
2022/11/12 10:18:16;;;;;;;5.47;1.80;;;11.90;99.90;;;;;;5009910;28;20048;-84
2022/11/12 10:20:49;;;;;;;1.88;1.40;;;11.90;99.90;;;;;;4997882;28;20092;-88
2022/11/12 10:23:23;;;;;;;2.72;1.60;;;11.90;99.90;;;;;;5020224;28;20224;-87
2022/11/12 10:25:52;;;;;;;1.98;1.33;;;11.80;99.90;;;;;;5019188;28;20029;-84
2022/11/12 10:28:33;;;;;;;1.23;0.90;;;11.80;99.90;;;;;;5027043;28;20029;-83
2022/11/12 10:31:12;;;;;;;3.30;1.60;;;11.80;99.90;;;;;;5025594;28;20077;-84
2022/11/12 10:33:38;;;;;;;2.30;1.45;;;11.80;99.90;;;;;;5016149;28;20022;-85
2022/11/12 10:36:32;;;;;;;1.55;1.40;;;11.80;99.90;;;;;;4997217;28;20032;-85
2022/11/12 10:38:58;;;;;;;3.85;1.70;;;11.70;99.90;;;;;;5012337;28;20034;-86
2022/11/12 10:41:29;;;;;;;3.30;1.33;;;11.70;99.90;;;;;;5015692;28;20024;-85
2022/11/12 10:43:59;;;;;;;3.10;1.25;;;11.70;99.90;;;;;;5013593;28;20046;-82
2022/11/12 10:46:37;;;;;;;3.83;1.80;;;11.70;99.90;;;;;;5010373;28;20033;-87
2022/11/12 10:49:07;;;;;;;2.75;1.70;;;11.60;99.90;;;;;;5014117;28;20101;-84
2022/11/12 10:51:35;;;;;;;7.53;1.73;;;11.70;99.90;;;;;;5012305;28;20090;-85
2022/11/12 10:54:26;;;;;;;8.75;3.75;;;11.80;99.90;;;;;;5014344;28;20415;-86
2022/11/12 10:56:52;;;;;;;3.10;1.98;;;11.80;99.90;;;;;;4999634;28;20014;-84
2022/11/12 10:59:24;;;;;;;1.63;1.33;;;11.70;99.90;;;;;;5002783;28;20398;-85
2022/11/12 11:01:58;;;;;;;2.47;1.23;;;11.80;99.90;;;;;;5006363;28;20026;-83
2022/11/12 11:04:34;;;;;;;4.72;1.77;;;11.70;99.90;;;;;;5016530;28;20053;-85
2022/11/12 11:07:23;;;;;;;3.58;1.48;;;11.70;99.90;;;;;;5023300;28;20026;-86
2022/11/12 11:09:53;;;;;;;1.65;1.30;;;11.60;99.90;;;;;;5018120;28;20022;-85
2022/11/12 11:12:28;;;;;;;2.65;1.02;;;11.50;99.90;;;;;;5012404;28;20022;-84
2022/11/12 11:15:18;;;;;;;2.03;1.00;;;11.50;99.90;;;;;;5014917;28;20483;-89
2022/11/12 11:17:44;;;;;;;2.15;1.42;;;11.40;99.90;;;;;;4993443;28;20121;-84
2022/11/12 11:20:23;;;;;;;3.63;0.95;;;11.30;99.90;;;;;;4995666;28;20125;-84
2022/11/12 11:23:00;;;;;;;2.58;1.42;;;11.20;99.90;;;;;;5012781;28;20042;-86
2022/11/12 11:25:27;;;;;;;1.50;0.90;;;11.10;99.90;;;;;;5012786;28;20033;-84
2022/11/12 11:28:06;;;;;;;5.68;1.75;;;11.10;99.90;;;;;;5012086;28;20461;-83
2022/11/12 11:30:34;;;;;;;7.72;1.92;;;11.00;99.90;;;;;;5012862;28;20483;-86
2022/11/12 11:33:18;;;;;;;2.67;1.50;;;11.00;99.90;;;;;;5012780;28;20028;-82
2022/11/12 11:35:58;;;;;;;3.28;1.92;;;11.00;99.90;;;;;;4995310;28;20113;-84
2022/11/12 11:38:48;;;;;;;3.00;1.85;;;11.00;99.90;;;;;;5012804;28;20026;-84
2022/11/12 11:41:35;;;;;;;2.33;1.50;;;11.00;99.90;;;;;;5012864;28;20053;-84
2022/11/12 11:44:20;;;;;;;2.08;1.25;;;11.00;99.90;;;;;;5009900;28;20069;-85
2022/11/12 11:46:57;;;;;;;1.63;1.02;;;11.00;99.90;;;;;;5013371;28;20411;-84
2022/11/12 11:49:31;;;;;;;2.60;1.52;;;11.10;99.90;;;;;;5012875;28;20041;-84
2022/11/12 11:52:25;;;;;;;2.25;1.50;;;11.00;99.90;;;;;;5012723;28;20036;-86
2022/11/12 11:55:16;;;;;;;2.30;1.63;;;11.00;99.90;;;;;;5012649;28;20026;-83
2022/11/12 11:58:08;;;;;;;3.63;1.52;;;11.00;99.90;;;;;;5013813;28;20026;-84
2022/11/12 12:01:09;;;;;;;3.33;1.40;;;11.00;99.90;;;;;;4999894;28;20052;-83
2022/11/12 12:03:55;;;;;;;7.10;3.13;;;11.00;99.90;;;;;;5013223;28;20084;-83
2022/11/12 12:06:31;;;;;;;4.25;1.63;;;11.00;99.90;;;;;;5013298;28;20482;-84
2022/11/12 12:09:11;;;;;;;4.53;1.55;;;11.00;99.90;;;;;;5014605;28;20434;-83
2022/11/12 12:12:00;;;;;;;1.20;1.00;;;10.90;99.90;;;;;;5016048;28;20033;-82
2022/11/12 12:14:54;;;;;;;2.38;1.40;;;10.90;99.90;;;;;;5005101;28;20026;-82
2022/11/12 12:17:29;;;;;;;2.45;1.48;;;10.80;99.90;;;;;;4999573;28;20041;-83
2022/11/12 12:20:13;;;;;;;3.28;1.83;;;10.80;99.90;;;;;;4995728;28;20053;-85
2022/11/12 12:22:59;;;;;;;2.83;1.85;;;10.70;99.90;;;;;;5013132;28;20053;-82
2022/11/12 12:25:34;;;;;;;3.67;1.60;;;10.80;99.90;;;;;;5020576;28;20084;-85
2022/11/12 12:28:12;;;;;;;5.30;2.30;;;10.70;99.90;;;;;;5018333;28;20069;-82
2022/11/12 12:30:43;;;;;;;4.53;1.98;;;10.70;99.90;;;;;;5013936;28;20030;-83
2022/11/12 12:33:27;;;;;;;2.53;1.80;;;10.70;99.90;;;;;;5012668;28;20037;-84
2022/11/12 12:36:03;;;;;;;2.25;1.35;;;10.70;99.90;;;;;;5012628;28;20064;-83
2022/11/12 12:38:45;;;;;;;3.38;1.40;;;10.60;99.90;;;;;;5013955;28;20058;-83
2022/11/12 12:41:26;;;;;;;5.03;2.05;;;10.60;99.90;;;;;;5017530;28;20060;-83
2022/11/12 12:44:01;;;;;;;2.80;1.55;;;10.60;99.90;;;;;;5022510;28;20014;-84
2022/11/12 12:46:33;;;;;;;4.25;1.30;;;10.60;99.90;;;;;;4996717;28;20108;-84
2022/11/12 12:49:00;;;;;;;4.85;2.05;;;10.60;99.90;;;;;;5021338;28;20082;-83
2022/11/12 12:51:30;;;;;;;2.95;1.80;;;10.60;99.90;;;;;;5018174;28;20044;-83
2022/11/12 12:53:56;;;;;;;2.30;1.75;;;10.60;99.90;;;;;;5011886;28;20483;-83
2022/11/12 12:56:21;;;;;;;3.17;2.40;;;10.60;99.90;;;;;;5013306;28;20079;-85
2022/11/12 12:58:51;;;;;;;3.55;2.30;;;10.60;99.90;;;;;;5020225;28;20049;-84
2022/11/12 13:01:22;;;;;;;2.75;1.90;;;10.70;99.90;;;;;;5020939;28;20018;-83
2022/11/12 13:03:51;;;;;;;3.30;2.05;;;10.70;99.90;;;;;;5018857;28;20387;-84
2022/11/12 13:06:23;;;;;;;2.63;1.70;;;10.80;99.90;;;;;;5016582;28;20048;-80
2022/11/12 13:09:12;;;;;;;1.42;1.30;;;10.80;99.90;;;;;;5014538;28;20026;-82
2022/11/12 13:15:08;;;;;;;3.13;1.48;;;10.90;99.90;;;;;;5015336;28;20040;-82
2022/11/12 13:17:46;;;;;;;1.85;1.30;;;10.90;99.90;;;;;;4922299;29;20032;-82
2022/11/12 13:20:32;;;;;;;4.07;2.40;;;11.00;99.90;;;;;;4935008;29;20039;-83
2022/11/12 13:22:58;;;;;;;2.53;1.63;;;11.10;99.90;;;;;;4935145;29;20536;-82
2022/11/12 13:25:30;;;;;;;4.05;2.50;;;11.10;99.90;;;;;;4934103;29;20076;-84
2022/11/12 13:28:22;;;;;;;5.13;2.38;;;11.10;99.90;;;;;;4935550;29;20036;-84
2022/11/12 13:30:47;;;;;;;4.47;1.75;;;11.10;99.90;;;;;;4897687;29;20446;-83
2022/11/12 13:33:31;;;;;;;3.85;1.48;;;11.10;99.90;;;;;;4898315;29;20071;-84
2022/11/12 13:36:23;;;;;;;3.05;1.40;;;11.10;99.90;;;;;;4898302;29;20048;-84
2022/11/12 13:38:50;;;;;;;2.33;1.30;;;11.10;99.90;;;;;;4898168;29;20036;-85
2022/11/12 13:42:46;;;;;;;3.17;1.73;;;11.10;99.90;;;;;;4882662;29;20028;-83
2022/11/12 13:44:14;;;;;;;5.35;1.42;;;11.10;99.90;;;;;;4897938;29;20396;-83